createdAt,value
2018-05-04T00:03:06.108Z,101668
2018-05-04T00:06:15.384Z,101659
2018-05-04T00:09:25.420Z,101668
2018-05-04T00:12:34.823Z,101675
2018-05-04T00:15:45.068Z,101679
2018-05-04T00:18:55.716Z,101684
2018-05-04T00:22:05.179Z,101682
2018-05-04T00:25:14.892Z,101689
2018-05-04T00:28:25.097Z,101680
2018-05-04T00:31:35.187Z,101685
2018-05-04T00:34:44.574Z,101681
2018-05-04T00:37:54.085Z,101687
2018-05-04T00:41:04.459Z,101682
2018-05-04T00:44:14.747Z,101679
2018-05-04T00:47:26.553Z,101683
2018-05-04T00:50:36.281Z,101688
2018-05-04T00:54:03.523Z,101686
2018-05-04T00:57:13.526Z,101685
2018-05-04T01:00:22.847Z,101688
2018-05-04T01:03:32.627Z,101706
2018-05-04T01:06:41.899Z,101706
2018-05-04T01:09:51.621Z,101708
2018-05-04T01:13:01.507Z,101708
2018-05-04T01:16:11.743Z,101712
2018-05-04T01:19:21.947Z,101713
2018-05-04T01:22:31.380Z,101713
2018-05-04T01:25:40.875Z,101715
2018-05-04T01:28:50.495Z,101716
2018-05-04T01:31:59.988Z,101716
2018-05-04T01:35:10.384Z,101721
2018-05-04T01:38:19.943Z,101728
2018-05-04T01:41:30.732Z,101735
2018-05-04T01:44:40.136Z,101734
2018-05-04T01:47:49.596Z,101741
2018-05-04T01:50:59.552Z,101749
2018-05-04T01:54:09.847Z,101751
2018-05-04T01:57:20.044Z,101743
2018-05-04T02:00:30.008Z,101749
2018-05-04T02:03:40.256Z,101749
2018-05-04T02:06:50.135Z,101753
2018-05-04T02:09:59.725Z,101757
2018-05-04T02:13:09.202Z,101753
2018-05-04T02:16:19.411Z,101752
2018-05-04T02:19:30.437Z,101750
2018-05-04T02:22:40.540Z,101748
2018-05-04T02:25:50.220Z,101751
2018-05-04T02:29:00.305Z,101754
2018-05-04T02:32:10.166Z,101758
2018-05-04T02:35:20.421Z,101754
2018-05-04T02:38:30.658Z,101755
2018-05-04T02:41:40.512Z,101759
2018-05-04T02:44:50.048Z,101760
2018-05-04T02:47:59.929Z,101754
2018-05-04T02:51:10.289Z,101753
2018-05-04T02:54:20.188Z,101748
2018-05-04T02:57:31.776Z,101747
2018-05-04T03:00:42.133Z,101739
2018-05-04T03:03:52.099Z,101737
2018-05-04T03:07:01.538Z,101732
2018-05-04T03:10:12.398Z,101733
2018-05-04T03:13:22.756Z,101732
2018-05-04T03:16:33.809Z,101717
2018-05-04T03:19:44.593Z,101716
2018-05-04T03:22:54.741Z,101713
2018-05-04T03:26:04.166Z,101712
2018-05-04T03:29:13.613Z,101712
2018-05-04T03:32:23.399Z,101710
2018-05-04T03:35:33.839Z,101711
2018-05-04T03:38:43.944Z,101711
2018-05-04T03:41:53.811Z,101715
2018-05-04T03:45:03.288Z,101712
2018-05-04T03:48:14.234Z,101713
2018-05-04T03:51:24.090Z,101717
2018-05-04T03:54:34.222Z,101717
2018-05-04T03:58:02.110Z,101718
2018-05-04T04:01:29.271Z,101714
2018-05-04T04:04:39.044Z,101726
2018-05-04T04:07:48.456Z,101724
2018-05-04T04:10:58.369Z,101721
2018-05-04T04:14:08.433Z,101720
2018-05-04T04:17:18.531Z,101726
2018-05-04T04:20:28.260Z,101740
2018-05-04T04:23:38.119Z,101743
2018-05-04T04:26:48.389Z,101749
2018-05-04T04:29:58.286Z,101752
2018-05-04T04:33:07.693Z,101756
2018-05-04T04:36:17.134Z,101757
2018-05-04T04:39:27.509Z,101759
2018-05-04T04:42:37.681Z,101767
2018-05-04T04:45:47.821Z,101770
2018-05-04T04:48:58.135Z,101773
2018-05-04T04:52:08.024Z,101777
2018-05-04T04:55:18.478Z,101776
2018-05-04T04:58:28.780Z,101782
2018-05-04T05:01:38.623Z,101788
2018-05-04T05:04:49.004Z,101790
2018-05-04T05:07:58.691Z,101793
2018-05-04T05:11:08.393Z,101803
2018-05-04T05:14:18.595Z,101802
2018-05-04T05:17:28.852Z,101807
2018-05-04T05:20:39.108Z,101808
2018-05-04T05:23:49.076Z,101810
2018-05-04T05:27:02.325Z,101805
2018-05-04T05:30:12.480Z,101807
2018-05-04T05:33:22.653Z,101807
2018-05-04T05:36:32.490Z,101813
2018-05-04T05:39:42.431Z,101820
2018-05-04T05:42:51.969Z,101826
2018-05-04T05:46:01.725Z,101826
2018-05-04T05:49:12.048Z,101833
2018-05-04T05:52:23.231Z,101830
2018-05-04T05:55:33.125Z,101826
2018-05-04T05:58:42.624Z,101825
2018-05-04T06:01:52.668Z,101826
2018-05-04T06:05:02.436Z,101826
2018-05-04T06:08:11.916Z,101823
2018-05-04T06:11:21.788Z,101816
2018-05-04T06:14:32.124Z,101818
2018-05-04T06:17:43.237Z,101820
2018-05-04T06:20:53.384Z,101824
2018-05-04T06:24:03.877Z,101827
2018-05-04T06:27:14.056Z,101826
2018-05-04T06:30:24.283Z,101826
2018-05-04T06:33:34.796Z,101824
2018-05-04T06:36:44.702Z,101823
2018-05-04T06:39:54.137Z,101817
2018-05-04T06:43:03.995Z,101814
2018-05-04T06:46:14.106Z,101815
2018-05-04T06:49:24.303Z,101810
2018-05-04T06:52:34.515Z,101812
2018-05-04T06:55:44.723Z,101811
2018-05-04T06:58:54.596Z,101812
2018-05-04T07:02:04.036Z,101812
2018-05-04T07:05:13.947Z,101817
2018-05-04T07:08:24.135Z,101819
2018-05-04T07:11:33.796Z,101823
2018-05-04T07:14:43.708Z,101831
2018-05-04T07:21:09.452Z,101819
2018-05-04T07:24:19.344Z,101816
2018-05-04T07:27:28.841Z,101811
2018-05-04T07:30:38.292Z,101814
2018-05-04T07:33:47.717Z,101816
2018-05-04T07:36:57.935Z,101820
2018-05-04T07:40:08.257Z,101824
2018-05-04T07:43:17.693Z,101822
2018-05-04T07:46:27.563Z,101820
2018-05-04T07:49:37.382Z,101819
2018-05-04T07:52:47.621Z,101817
2018-05-04T07:55:57.325Z,101809
2018-05-04T07:59:06.696Z,101810
2018-05-04T08:02:16.062Z,101806
2018-05-04T08:05:26.221Z,101790
2018-05-04T08:08:35.693Z,101808
2018-05-04T08:11:45.926Z,101804
2018-05-04T08:14:55.341Z,101804
2018-05-04T08:18:05.217Z,101801
2018-05-04T08:21:14.865Z,101803
2018-05-04T08:24:24.919Z,101803
2018-05-04T08:27:34.999Z,101804
2018-05-04T08:30:46.456Z,101808
2018-05-04T08:33:55.781Z,101807
2018-05-04T08:37:05.104Z,101802
2018-05-04T08:40:15.181Z,101805
2018-05-04T08:43:25.041Z,101806
2018-05-04T08:46:35.260Z,101808
2018-05-04T08:49:47.165Z,101804
2018-05-04T08:52:56.559Z,101796
2018-05-04T08:56:06.076Z,101785
2018-05-04T08:59:17.321Z,101788
2018-05-04T09:02:26.836Z,101787
2018-05-04T09:05:36.221Z,101782
2018-05-04T09:08:47.926Z,101787
2018-05-04T09:11:57.297Z,101794
2018-05-04T09:15:06.779Z,101780
2018-05-04T09:18:16.340Z,101780
2018-05-04T09:21:31.240Z,101779
2018-05-04T09:24:41.242Z,101777
2018-05-04T09:27:51.321Z,101776
2018-05-04T09:31:00.983Z,101764
2018-05-04T09:34:10.351Z,101765
2018-05-04T09:37:20.050Z,101761
2018-05-04T09:40:30.251Z,101774
2018-05-04T09:43:39.613Z,101767
2018-05-04T09:46:49.745Z,101768
2018-05-04T09:49:59.228Z,101765
2018-05-04T09:53:08.712Z,101763
2018-05-04T09:56:18.211Z,101756
2018-05-04T09:59:28.434Z,101747
2018-05-04T10:02:37.776Z,101740
2018-05-04T10:05:50.548Z,101733
2018-05-04T10:09:00.849Z,101740
2018-05-04T10:12:10.183Z,101735
2018-05-04T10:15:19.643Z,101741
2018-05-04T10:18:29.243Z,101737
2018-05-04T10:21:38.560Z,101733
2018-05-04T10:24:48.045Z,101739
2018-05-04T10:27:57.870Z,101758
2018-05-04T10:31:07.332Z,101750
2018-05-04T10:34:18.549Z,101740
2018-05-04T10:37:28.061Z,101732
2018-05-04T10:40:37.893Z,101749
2018-05-04T10:43:48.014Z,101748
2018-05-04T10:46:57.772Z,101737
2018-05-04T10:50:07.233Z,101730
2018-05-04T10:53:16.482Z,101733
2018-05-04T10:56:25.936Z,101736
2018-05-04T10:59:35.333Z,101726
2018-05-04T11:02:44.792Z,101728
2018-05-04T11:05:55.576Z,101738
2018-05-04T11:09:06.772Z,101745
2018-05-04T11:12:16.409Z,101745
2018-05-04T11:15:26.660Z,101757
2018-05-04T11:18:36.876Z,101752
2018-05-04T11:21:46.476Z,101746
2018-05-04T11:24:55.979Z,101757
2018-05-04T11:28:06.272Z,101763
2018-05-04T11:31:15.779Z,101757
2018-05-04T11:34:25.777Z,101752
2018-05-04T11:37:35.361Z,101747
2018-05-04T11:40:44.821Z,101752
2018-05-04T11:43:55.079Z,101756
2018-05-04T11:47:04.907Z,101742
2018-05-04T11:50:14.800Z,101748
2018-05-04T11:53:24.252Z,101749
2018-05-04T11:56:34.732Z,101731
2018-05-04T11:59:44.084Z,101736
2018-05-04T12:02:55.832Z,101733
2018-05-04T12:06:05.488Z,101731
2018-05-04T12:09:15.260Z,101734
2018-05-04T12:12:25.172Z,101738
2018-05-04T12:15:35.433Z,101735
2018-05-04T12:18:44.817Z,101728
2018-05-04T12:21:56.759Z,101722
2018-05-04T12:25:06.232Z,101716
2018-05-04T12:28:15.682Z,101710
2018-05-04T12:31:25.158Z,101723
2018-05-04T12:34:35.529Z,101729
2018-05-04T12:37:44.824Z,101721
2018-05-04T12:40:54.741Z,101723
2018-05-04T12:44:05.735Z,101726
2018-05-04T12:47:15.179Z,101726
2018-05-04T12:50:25.016Z,101751
2018-05-04T12:53:34.520Z,101733
2018-05-04T12:56:44.681Z,101730
2018-05-04T12:59:54.180Z,101732
2018-05-04T13:03:04.603Z,101726
2018-05-04T13:06:14.060Z,101720
2018-05-04T13:09:23.566Z,101719
2018-05-04T13:12:33.750Z,101724
2018-05-04T13:15:43.971Z,101715
2018-05-04T13:18:53.433Z,101708
2018-05-04T13:22:11.472Z,101714
2018-05-04T13:25:20.975Z,101714
2018-05-04T13:28:31.409Z,101721
2018-05-04T13:31:40.893Z,101707
2018-05-04T13:34:50.608Z,101708
2018-05-04T13:38:00.556Z,101699
2018-05-04T13:41:10.815Z,101713
2018-05-04T13:44:20.439Z,101712
2018-05-04T13:47:29.927Z,101702
2018-05-04T13:50:39.769Z,101700
2018-05-04T13:57:05.038Z,101717
2018-05-04T14:00:14.396Z,101723
2018-05-04T14:03:24.095Z,101721
2018-05-04T14:06:34.807Z,101709
2018-05-04T14:09:44.175Z,101700
2018-05-04T14:12:53.652Z,101705
2018-05-04T14:16:02.889Z,101711
2018-05-04T14:19:12.896Z,101705
2018-05-04T14:22:22.532Z,101705
2018-05-04T14:25:33.553Z,101712
2018-05-04T14:28:42.816Z,101705
2018-05-04T14:31:52.315Z,101686
2018-05-04T14:35:03.076Z,101694
2018-05-04T14:38:12.404Z,101701
2018-05-04T14:41:22.326Z,101705
2018-05-04T14:44:32.033Z,101697
2018-05-04T14:47:42.423Z,101707
2018-05-04T14:50:51.882Z,101697
2018-05-04T14:54:03.757Z,101696
2018-05-04T14:57:13.143Z,101697
2018-05-04T15:00:22.780Z,101695
2018-05-04T15:03:32.292Z,101694
2018-05-04T15:06:41.879Z,101708
2018-05-04T15:09:51.309Z,101711
2018-05-04T15:13:01.581Z,101697
2018-05-04T15:16:10.838Z,101699
2018-05-04T15:19:20.450Z,101697
2018-05-04T15:22:29.899Z,101697
2018-05-04T15:25:40.182Z,101712
2018-05-04T15:28:49.651Z,101712
2018-05-04T15:31:59.065Z,101695
2018-05-04T15:35:08.544Z,101699
2018-05-04T15:38:18.824Z,101721
2018-05-04T15:41:28.829Z,101719
2018-05-04T15:44:39.208Z,101718
2018-05-04T15:47:49.336Z,101713
2018-05-04T15:51:05.387Z,101712
2018-05-04T15:54:14.704Z,101710
2018-05-04T15:57:24.222Z,101716
2018-05-04T16:00:33.646Z,101716
2018-05-04T16:03:43.989Z,101718
2018-05-04T16:06:53.391Z,101705
2018-05-04T16:10:02.926Z,101712
2018-05-04T16:13:12.442Z,101714
2018-05-04T16:16:21.830Z,101723
2018-05-04T16:19:31.360Z,101716
2018-05-04T16:22:41.540Z,101713
2018-05-04T16:25:51.475Z,101709
2018-05-04T16:29:00.981Z,101716
2018-05-04T16:32:10.362Z,101712
2018-05-04T16:35:19.739Z,101710
2018-05-04T16:38:29.137Z,101705
2018-05-04T16:41:39.099Z,101712
2018-05-04T16:44:49.307Z,101720
2018-05-04T16:48:04.304Z,101714
2018-05-04T16:51:13.691Z,101707
2018-05-04T16:54:22.992Z,101714
2018-05-04T16:57:33.360Z,101717
2018-05-04T17:00:43.083Z,101711
2018-05-04T17:03:52.517Z,101722
2018-05-04T17:07:02.150Z,101718
2018-05-04T17:10:11.552Z,101723
2018-05-04T17:13:21.631Z,101723
2018-05-04T17:16:31.908Z,101724
2018-05-04T17:19:41.331Z,101727
2018-05-04T17:22:50.623Z,101728
2018-05-04T17:26:00.062Z,101739
2018-05-04T17:29:14.796Z,101743
2018-05-04T17:32:24.191Z,101760
2018-05-04T17:35:33.666Z,101754
2018-05-04T17:38:43.080Z,101761
2018-05-04T17:41:52.555Z,101770
2018-05-04T17:45:02.602Z,101769
2018-05-04T17:48:12.865Z,101765
2018-05-04T17:51:23.081Z,101768
2018-05-04T17:54:32.975Z,101771
2018-05-04T17:57:43.230Z,101776
2018-05-04T18:00:53.364Z,101784
2018-05-04T18:04:03.507Z,101789
2018-05-04T18:07:13.792Z,101801
2018-05-04T18:10:24.036Z,101812
2018-05-04T18:13:34.334Z,101809
2018-05-04T18:16:44.616Z,101821
2018-05-04T18:19:54.950Z,101822
2018-05-04T18:23:04.709Z,101824
2018-05-04T18:26:14.575Z,101833
2018-05-04T18:29:24.906Z,101836
2018-05-04T18:32:34.244Z,101841
2018-05-04T18:35:44.620Z,101850
2018-05-04T18:38:54.119Z,101850
2018-05-04T18:42:03.804Z,101854
2018-05-04T18:45:14.272Z,101854
2018-05-04T18:48:24.030Z,101858
2018-05-04T18:51:33.340Z,101866
2018-05-04T18:54:42.826Z,101863
2018-05-04T18:57:52.751Z,101867
2018-05-04T19:01:02.949Z,101871
2018-05-04T19:04:14.418Z,101876
2018-05-04T19:07:23.888Z,101879
2018-05-04T19:10:34.121Z,101884
2018-05-04T19:13:44.877Z,101894
2018-05-04T19:16:55.067Z,101894
2018-05-04T19:20:05.161Z,101893
2018-05-04T19:23:15.838Z,101889
2018-05-04T19:26:26.135Z,101894
2018-05-04T19:29:36.584Z,101894
2018-05-04T19:32:46.405Z,101902
2018-05-04T19:35:55.617Z,101900
2018-05-04T19:39:04.960Z,101899
2018-05-04T19:42:16.576Z,101899
2018-05-04T19:45:26.469Z,101910
2018-05-04T19:48:37.090Z,101913
2018-05-04T19:51:47.380Z,101915
2018-05-04T19:54:57.164Z,101927
2018-05-04T19:58:06.991Z,101917
2018-05-04T20:01:17.550Z,101925
2018-05-04T20:04:27.715Z,101936
2018-05-04T20:07:37.534Z,101933
2018-05-04T20:10:47.831Z,101935
2018-05-04T20:13:59.461Z,101938
2018-05-04T20:17:10.848Z,101936
2018-05-04T20:20:24.973Z,101938
2018-05-04T20:23:34.989Z,101941
2018-05-04T20:26:45.730Z,101945
2018-05-04T20:29:55.739Z,101947
2018-05-04T20:33:06.294Z,101942
2018-05-04T20:36:18.867Z,101940
2018-05-04T20:39:28.347Z,101942
2018-05-04T20:42:37.941Z,101950
2018-05-04T20:45:47.396Z,101953
2018-05-04T20:48:57.342Z,101951
2018-05-04T20:52:06.743Z,101952
2018-05-04T20:55:18.858Z,101961
2018-05-04T20:58:29.275Z,101963
2018-05-04T21:01:39.529Z,101963
2018-05-04T21:04:48.999Z,101967
2018-05-04T21:07:58.479Z,101971
2018-05-04T21:11:08.465Z,101974
2018-05-04T21:14:19.575Z,101976
2018-05-04T21:17:29.421Z,101976
2018-05-04T21:20:39.874Z,101980
2018-05-04T21:23:49.782Z,101984
2018-05-04T21:26:59.581Z,101986
2018-05-04T21:30:09.419Z,101990
2018-05-04T21:33:19.813Z,101986
2018-05-04T21:36:29.950Z,101987
2018-05-04T21:39:41.625Z,101991
2018-05-04T21:42:51.663Z,102001
2018-05-04T21:46:01.117Z,101994
2018-05-04T21:49:10.931Z,101995
2018-05-04T21:52:21.300Z,101995
2018-05-04T21:55:30.660Z,101993
2018-05-04T21:58:40.551Z,101996
2018-05-04T22:01:49.994Z,101992
2018-05-04T22:05:00.184Z,101998
2018-05-04T22:08:09.668Z,101995
2018-05-04T22:11:21.549Z,101991
2018-05-04T22:14:31.875Z,102002
2018-05-04T22:17:42.121Z,101996
2018-05-04T22:20:52.183Z,102000
2018-05-04T22:24:02.365Z,101998
2018-05-04T22:27:12.979Z,101995
2018-05-04T22:30:23.161Z,101996
2018-05-04T22:33:32.935Z,102001
2018-05-04T22:36:43.020Z,102001
2018-05-04T22:39:53.324Z,101999
2018-05-04T22:43:03.747Z,102004
2018-05-04T22:46:13.644Z,102008
2018-05-04T22:49:24.910Z,102012
2018-05-04T22:52:34.141Z,102014
2018-05-04T22:55:44.508Z,102015
2018-05-04T22:58:54.016Z,102014
2018-05-04T23:02:03.598Z,102014
2018-05-04T23:05:13.729Z,102015
2018-05-04T23:08:24.593Z,102013
2018-05-04T23:11:33.968Z,102013
2018-05-04T23:14:43.455Z,102013
2018-05-04T23:17:53.773Z,102022
2018-05-04T23:21:07.852Z,102021
2018-05-04T23:24:17.175Z,102022
2018-05-04T23:27:26.983Z,102019
2018-05-04T23:30:36.601Z,102015
2018-05-04T23:33:50.263Z,102019
2018-05-04T23:36:59.785Z,102021
2018-05-04T23:40:09.237Z,102015
2018-05-04T23:43:19.213Z,102015
2018-05-04T23:46:28.523Z,102015
2018-05-04T23:49:38.033Z,102014
2018-05-04T23:52:51.643Z,102016
2018-05-04T23:56:01.823Z,102015
2018-05-04T23:59:11.221Z,102021
